createdAt,value
2022-09-07T00:00:58.042Z,99936.78
2022-09-07T00:05:54.530Z,99942.03
2022-09-07T00:10:59.492Z,99935.91
2022-09-07T00:15:56.582Z,99941.59
2022-09-07T00:21:04.912Z,99942.06
2022-09-07T00:26:03.592Z,99930.84
2022-09-07T00:31:00.279Z,99930.31
2022-09-07T00:35:58.624Z,99928.25
2022-09-07T00:40:54.942Z,99923.09
2022-09-07T00:45:51.298Z,99912.97
2022-09-07T00:50:55.157Z,99899.00
2022-09-07T00:55:53.618Z,99914.38
2022-09-07T01:00:50.725Z,99914.78
2022-09-07T01:06:17.703Z,99919.97
2022-09-07T01:11:14.058Z,99943.31
2022-09-07T01:16:27.724Z,99954.53
2022-09-07T01:21:32.944Z,100015.91
2022-09-07T01:27:06.219Z,100059.13
2022-09-07T01:32:32.729Z,100103.59
2022-09-07T01:37:48.992Z,100114.34
2022-09-07T01:42:59.335Z,100114.38
2022-09-07T01:47:59.378Z,100102.03
2022-09-07T01:53:19.818Z,100102.91
2022-09-07T01:58:24.994Z,100092.88
2022-09-07T02:03:44.970Z,100065.28
2022-09-07T02:08:49.627Z,100045.78
2022-09-07T02:13:53.701Z,100043.44
2022-09-07T02:18:55.613Z,100043.84
2022-09-07T02:23:57.966Z,100046.59
2022-09-07T02:28:54.462Z,100067.47
2022-09-07T02:33:51.545Z,100091.34
2022-09-07T02:38:47.958Z,100079.25
2022-09-07T02:43:44.393Z,100070.53
2022-09-07T02:49:05.237Z,100071.53
2022-09-07T02:54:15.475Z,100078.09
2022-09-07T02:59:38.480Z,100078.25
2022-09-07T03:04:50.505Z,100068.09
2022-09-07T03:09:50.239Z,100075.53
2022-09-07T03:14:46.603Z,100079.09
2022-09-07T03:19:42.914Z,100087.31
2022-09-07T03:24:39.274Z,100072.38
2022-09-07T03:29:39.130Z,100037.91
2022-09-07T03:34:37.829Z,100024.63
2022-09-07T03:39:35.705Z,99987.03
2022-09-07T03:44:32.198Z,99969.59
2022-09-07T03:49:28.711Z,99981.03
2022-09-07T03:54:25.232Z,99969.28
2022-09-07T03:59:21.595Z,99978.66
2022-09-07T04:04:17.990Z,99971.72
2022-09-07T04:09:14.682Z,99996.13
2022-09-07T04:14:11.652Z,100003.09
2022-09-07T04:19:08.014Z,99978.63
2022-09-07T04:24:04.617Z,99994.44
2022-09-07T04:29:04.212Z,100001.19
2022-09-07T04:34:00.700Z,100015.97
2022-09-07T04:38:59.953Z,100018.34
2022-09-07T04:43:59.015Z,100006.25
2022-09-07T04:49:00.496Z,100000.88
2022-09-07T04:53:58.479Z,99994.84
2022-09-07T04:58:55.042Z,99991.66
2022-09-07T05:03:52.057Z,99985.44
2022-09-07T05:08:51.072Z,99978.88
2022-09-07T05:13:47.471Z,99975.38
2022-09-07T05:18:44.064Z,99969.94
2022-09-07T05:23:41.253Z,99961.91
2022-09-07T05:28:38.387Z,99965.78
2022-09-07T05:38:51.857Z,99971.31
2022-09-07T05:49:07.942Z,99987.09
2022-09-07T05:54:04.440Z,99990.44
2022-09-07T05:59:01.076Z,100000.56
2022-09-07T06:03:57.710Z,99996.47
2022-09-07T06:08:54.308Z,99987.59
2022-09-07T06:13:51.934Z,99986.25
2022-09-07T06:18:49.938Z,99988.09
2022-09-07T06:23:47.419Z,99990.66
2022-09-07T06:28:48.882Z,99983.91
2022-09-07T06:33:47.710Z,99987.72
2022-09-07T06:38:44.587Z,99981.22
2022-09-07T06:43:45.508Z,99982.03
2022-09-07T06:48:44.489Z,99971.47
2022-09-07T06:53:43.148Z,99965.84
2022-09-07T06:58:42.523Z,99968.53
2022-09-07T07:03:39.501Z,99972.34
2022-09-07T07:08:36.470Z,99979.69
2022-09-07T07:13:34.007Z,99985.34
2022-09-07T07:18:30.592Z,99986.28
2022-09-07T07:23:27.093Z,99994.59
2022-09-07T07:33:43.579Z,100005.38
2022-09-07T07:38:59.839Z,100005.25
2022-09-07T07:43:58.330Z,99998.22
2022-09-07T07:48:54.992Z,99998.81
2022-09-07T07:53:51.301Z,100003.50
2022-09-07T07:58:48.602Z,100005.59
2022-09-07T08:03:46.726Z,100016.06
2022-09-07T08:08:44.684Z,100024.34
2022-09-07T08:13:42.495Z,100022.25
2022-09-07T08:18:39.569Z,100021.44
2022-09-07T08:23:35.954Z,100023.09
2022-09-07T08:28:38.694Z,100030.25
2022-09-07T08:33:38.677Z,100039.13
2022-09-07T08:38:36.456Z,100055.41
2022-09-07T08:43:50.001Z,100057.47
2022-09-07T08:48:47.031Z,100050.75
2022-09-07T08:53:48.245Z,100038.91
2022-09-07T08:58:49.991Z,100042.19
2022-09-07T09:09:18.441Z,100057.50
2022-09-07T09:14:28.294Z,100057.91
2022-09-07T09:19:55.448Z,100063.31
2022-09-07T09:24:56.896Z,100058.75
2022-09-07T09:29:53.266Z,100058.19
2022-09-07T09:35:15.514Z,100064.47
2022-09-07T09:40:25.078Z,100066.59
2022-09-07T09:45:27.257Z,100067.72
2022-09-07T09:55:52.112Z,100071.66
2022-09-07T10:06:19.382Z,100068.78
2022-09-07T10:11:15.940Z,100078.31
2022-09-07T10:16:12.599Z,100075.66
2022-09-07T10:21:29.108Z,100074.63
2022-09-07T10:26:33.402Z,100061.88
2022-09-07T10:31:31.923Z,100072.31
2022-09-07T10:36:43.847Z,100058.72
2022-09-07T10:41:59.629Z,100064.38
2022-09-07T10:47:07.834Z,100072.47
2022-09-07T10:52:34.514Z,100051.94
2022-09-07T10:58:11.561Z,100049.34
2022-09-07T11:03:29.566Z,100052.25
2022-09-07T11:14:13.585Z,100043.69
2022-09-07T11:19:37.272Z,100041.81
2022-09-07T11:24:45.259Z,100040.97
2022-09-07T11:29:54.726Z,100040.75
2022-09-07T11:34:57.480Z,100049.25
2022-09-07T11:40:03.973Z,100040.44
2022-09-07T11:45:15.680Z,100040.25
2022-09-07T11:50:17.659Z,100038.94
2022-09-07T11:55:25.753Z,100043.84
2022-09-07T12:00:40.688Z,100021.66
2022-09-07T12:06:10.353Z,100012.28
2022-09-07T12:11:24.207Z,100018.13
2022-09-07T12:16:51.099Z,100016.69
2022-09-07T12:21:53.373Z,100016.88
2022-09-07T12:26:51.188Z,100017.41
2022-09-07T12:31:59.588Z,100018.94
2022-09-07T12:37:26.641Z,100019.44
2022-09-07T12:42:36.924Z,100021.06
2022-09-07T12:47:34.038Z,100013.34
2022-09-07T12:52:47.173Z,100010.47
2022-09-07T12:57:52.557Z,99992.63
2022-09-07T13:09:09.257Z,100000.81
2022-09-07T13:14:19.192Z,99998.28
2022-09-07T13:19:51.049Z,99982.25
2022-09-07T13:24:52.659Z,99985.13
2022-09-07T13:29:55.365Z,99978.47
2022-09-07T13:35:00.951Z,99980.34
2022-09-07T13:39:58.615Z,99991.16
2022-09-07T13:44:57.405Z,99991.81
2022-09-07T13:50:02.062Z,100005.06
2022-09-07T13:55:17.927Z,99994.44
2022-09-07T14:00:16.138Z,99991.19
2022-09-07T14:05:18.582Z,99988.97
2022-09-07T14:10:19.773Z,99983.91
2022-09-07T14:15:25.383Z,99980.28
2022-09-07T14:20:23.477Z,99985.19
2022-09-07T14:25:22.108Z,99988.13
2022-09-07T14:30:30.648Z,99973.47
2022-09-07T14:35:32.250Z,99969.75
2022-09-07T14:40:28.551Z,99971.72
2022-09-07T14:45:26.313Z,99970.91
2022-09-07T14:50:38.290Z,99970.75
2022-09-07T14:55:38.595Z,99967.75
2022-09-07T15:00:35.429Z,99973.94
2022-09-07T15:05:31.773Z,99962.97
2022-09-07T15:10:32.606Z,99966.50
2022-09-07T15:15:32.594Z,99960.66
2022-09-07T15:20:38.033Z,99957.16
2022-09-07T15:25:35.253Z,99962.69
2022-09-07T15:30:33.373Z,99954.91
2022-09-07T15:35:29.940Z,99948.25
2022-09-07T15:40:27.414Z,99949.94
2022-09-07T15:45:23.757Z,99952.88
2022-09-07T15:50:23.099Z,99956.00
2022-09-07T15:55:19.859Z,99953.38
2022-09-07T16:00:16.319Z,99955.41
2022-09-07T16:05:12.827Z,99952.59
2022-09-07T16:10:10.385Z,99959.91
2022-09-07T16:15:08.362Z,99958.19
2022-09-07T16:20:05.064Z,99958.06
2022-09-07T16:25:01.420Z,99941.31
2022-09-07T16:29:57.778Z,99943.03
2022-09-07T16:34:54.178Z,99942.59
2022-09-07T16:39:52.023Z,99936.78
2022-09-07T16:44:49.553Z,99927.84
2022-09-07T16:49:46.224Z,99927.25
2022-09-07T16:54:42.604Z,99928.50
2022-09-07T16:59:38.901Z,99913.94
2022-09-07T17:04:35.256Z,99916.81
2022-09-07T17:09:31.916Z,99916.41
2022-09-07T17:14:28.701Z,99920.09
2022-09-07T17:19:32.674Z,99931.13
2022-09-07T17:24:32.187Z,99938.56
2022-09-07T17:29:30.713Z,99936.88
2022-09-07T17:34:27.395Z,99942.59
2022-09-07T17:39:23.786Z,99939.06
2022-09-07T17:44:21.460Z,99944.66
2022-09-07T17:49:18.078Z,99925.97
2022-09-07T17:54:17.292Z,99934.19
2022-09-07T18:04:30.341Z,99927.53
2022-09-07T18:09:26.753Z,99925.50
2022-09-07T18:14:23.330Z,99932.66
2022-09-07T18:19:19.824Z,99918.28
2022-09-07T18:24:22.834Z,99926.72
2022-09-07T18:29:29.237Z,99921.22
2022-09-07T18:34:28.938Z,99924.91
2022-09-07T18:39:25.768Z,99919.31
2022-09-07T18:49:40.250Z,99931.59
2022-09-07T18:54:36.702Z,99923.81
2022-09-07T18:59:33.031Z,99914.72
2022-09-07T19:05:49.618Z,99917.28
2022-09-07T19:09:47.917Z,99905.22
2022-09-07T19:14:44.418Z,99902.28
2022-09-07T19:19:42.018Z,99893.34
2022-09-07T19:24:38.265Z,99897.44
2022-09-07T19:29:34.641Z,99900.28
2022-09-07T19:34:35.022Z,99906.31
2022-09-07T19:39:31.811Z,99901.28
2022-09-07T19:44:28.206Z,99902.38
2022-09-07T19:49:24.517Z,99901.78
2022-09-07T19:54:20.834Z,99896.28
2022-09-07T19:59:19.092Z,99875.56
2022-09-07T20:04:20.526Z,99875.94
2022-09-07T20:09:18.528Z,99869.75
2022-09-07T20:14:16.392Z,99859.47
2022-09-07T20:19:16.331Z,99856.25
2022-09-07T20:24:13.109Z,99858.84
2022-09-07T20:34:27.181Z,99844.69
2022-09-07T20:39:23.471Z,99831.03
2022-09-07T20:44:19.982Z,99828.34
2022-09-07T20:49:16.403Z,99824.50
2022-09-07T20:54:12.939Z,99824.44
2022-09-07T20:59:09.706Z,99823.16
2022-09-07T21:04:06.321Z,99821.00
2022-09-07T21:09:02.885Z,99821.69
2022-09-07T21:14:02.017Z,99813.63
2022-09-07T21:19:00.899Z,99823.53
2022-09-07T21:23:59.297Z,99815.63
2022-09-07T21:28:59.353Z,99815.31
2022-09-07T21:33:57.494Z,99812.19
2022-09-07T21:38:54.451Z,99815.72
2022-09-07T21:43:57.767Z,99815.59
2022-09-07T21:48:55.637Z,99818.75
2022-09-07T21:53:53.434Z,99811.19
2022-09-07T21:58:56.735Z,99806.53
2022-09-07T22:03:57.002Z,99806.16
2022-09-07T22:08:54.186Z,99806.28
2022-09-07T22:13:57.860Z,99814.66
2022-09-07T22:18:54.636Z,99806.72
2022-09-07T22:23:54.707Z,99800.81
2022-09-07T22:28:51.741Z,99795.81
2022-09-07T22:33:49.474Z,99802.84
2022-09-07T22:38:48.370Z,99798.28
2022-09-07T22:43:45.727Z,99795.91
2022-09-07T22:48:42.160Z,99787.91
2022-09-07T22:53:40.732Z,99792.75
2022-09-07T22:58:38.146Z,99780.66
2022-09-07T23:03:35.188Z,99776.44
2022-09-07T23:08:31.983Z,99780.66
2022-09-07T23:13:28.288Z,99773.66
2022-09-07T23:18:24.675Z,99772.28
2022-09-07T23:23:20.974Z,99761.72
2022-09-07T23:28:17.393Z,99757.53
2022-09-07T23:33:13.694Z,99745.78
2022-09-07T23:38:10.013Z,99738.91
2022-09-07T23:43:06.345Z,99731.84
2022-09-07T23:48:02.657Z,99735.06
2022-09-07T23:52:59.146Z,99719.78
2022-09-07T23:57:55.642Z,99717.72
